Time;durP1;ratioP1;P1;durP2;ratioP2;P2;SDS_P1;SDS_P2;PMS_P1;PMS_P2;Temp;Humidity;BMP_temperature;BMP_pressure;BME280_temperature;BME280_humidity;BME280_pressure;Samples;Min_cycle;Max_cycle;Signal;HPM_P1;HPM_P2
2022/05/10 00:00:12;;;;;;;6.28;3.55;;;16.30;81.30;;;;;;4980861;28;20031;-81
2022/05/10 00:02:38;;;;;;;7.45;4.00;;;16.40;81.20;;;;;;4981071;28;20038;-80
2022/05/10 00:05:04;;;;;;;5.70;3.40;;;16.40;81.10;;;;;;4963361;28;20023;-80
2022/05/10 00:07:33;;;;;;;6.45;3.78;;;16.40;81.00;;;;;;4980987;28;20443;-80
2022/05/10 00:09:59;;;;;;;7.15;3.53;;;16.40;81.00;;;;;;4962814;28;20030;-80
2022/05/10 00:12:25;;;;;;;6.80;3.63;;;16.40;81.00;;;;;;4963181;28;20031;-80
2022/05/10 00:14:50;;;;;;;7.18;3.95;;;16.40;81.10;;;;;;4980725;28;20392;-81
2022/05/10 00:17:30;;;;;;;6.88;3.70;;;16.30;81.10;;;;;;4963109;28;20026;-81
2022/05/10 00:19:56;;;;;;;7.30;3.70;;;16.20;81.30;;;;;;4963244;28;20082;-80
2022/05/10 00:22:22;;;;;;;7.07;3.95;;;16.30;81.50;;;;;;4962652;28;20030;-81
2022/05/10 00:24:47;;;;;;;6.20;3.58;;;16.30;81.60;;;;;;4961608;28;20019;-81
2022/05/10 00:27:13;;;;;;;6.72;3.65;;;16.30;81.60;;;;;;4979327;28;20019;-81
2022/05/10 00:29:38;;;;;;;6.13;3.47;;;16.30;81.70;;;;;;4962211;28;20031;-81
2022/05/10 00:32:04;;;;;;;6.35;3.70;;;16.30;81.70;;;;;;4980045;28;20027;-80
2022/05/10 00:34:30;;;;;;;7.10;4.10;;;16.20;81.70;;;;;;4978770;28;20047;-81
2022/05/10 00:36:56;;;;;;;6.95;3.65;;;16.30;81.90;;;;;;4961857;28;20030;-81
2022/05/10 00:39:22;;;;;;;5.80;3.90;;;16.30;81.90;;;;;;4979632;28;20054;-81
2022/05/10 00:41:51;;;;;;;6.60;3.85;;;16.20;81.90;;;;;;4979941;28;20396;-80
2022/05/10 00:44:25;;;;;;;6.55;3.40;;;16.20;82.00;;;;;;4979302;28;20023;-80
2022/05/10 00:47:04;;;;;;;5.68;3.50;;;16.20;82.00;;;;;;4962181;28;20400;-80
2022/05/10 00:49:37;;;;;;;5.72;3.70;;;16.20;82.10;;;;;;4961724;28;20034;-80
2022/05/10 00:52:24;;;;;;;6.07;3.35;;;16.20;82.10;;;;;;4962187;28;20027;-80
2022/05/10 00:55:01;;;;;;;5.88;3.65;;;16.20;82.00;;;;;;4966740;28;20026;-81
2022/05/10 00:57:51;;;;;;;6.85;3.83;;;16.20;82.10;;;;;;4961771;28;20483;-81
2022/05/10 01:00:28;;;;;;;6.35;3.65;;;16.20;82.10;;;;;;4961399;28;20023;-81
2022/05/10 01:03:37;;;;;;;6.95;3.92;;;16.20;81.90;;;;;;4962544;28;20082;-82
2022/05/10 01:06:18;;;;;;;7.25;3.50;;;16.30;81.90;;;;;;4942434;29;20052;-81
2022/05/10 01:08:47;;;;;;;;;;;16.30;81.70;;;;;;4963209;28;20093;-81
2022/05/10 01:11:22;;;;;;;6.15;3.45;;;16.30;81.60;;;;;;4982688;28;20427;-80
2022/05/10 01:13:57;;;;;;;6.68;3.90;;;16.30;81.40;;;;;;4965326;28;20365;-80
2022/05/10 01:16:24;;;;;;;6.18;3.60;;;16.40;81.40;;;;;;4964287;28;20027;-81
2022/05/10 01:18:50;;;;;;;6.38;3.90;;;16.40;81.30;;;;;;4964920;28;20030;-81
2022/05/10 01:22:04;;;;;;;6.22;3.40;;;16.40;81.30;;;;;;4966255;28;20523;-81
2022/05/10 01:24:33;;;;;;;5.85;3.47;;;16.30;81.30;;;;;;4912382;28;20739;-81
2022/05/10 01:27:13;;;;;;;6.00;3.38;;;16.30;81.50;;;;;;4963919;28;20106;-80
2022/05/10 01:29:54;;;;;;;6.40;3.47;;;16.30;81.60;;;;;;4962998;28;20117;-80
2022/05/10 01:35:12;;;;;;;;;;;16.30;81.80;;;;;;4981827;28;20227;-81
2022/05/10 01:37:43;;;;;;;7.13;4.10;;;16.30;81.90;;;;;;4961950;28;19917;-82
2022/05/10 01:40:22;;;;;;;6.03;3.70;;;16.20;81.80;;;;;;4962837;28;20027;-81
2022/05/10 01:42:52;;;;;;;5.30;3.33;;;16.20;81.90;;;;;;4962437;28;20023;-80
2022/05/10 01:45:27;;;;;;;6.68;3.63;;;16.20;82.00;;;;;;4961978;28;20392;-81
2022/05/10 01:47:59;;;;;;;6.47;3.83;;;16.20;82.10;;;;;;4961881;28;20030;-82
2022/05/10 01:50:27;;;;;;;6.10;3.42;;;16.20;82.10;;;;;;4961700;28;20114;-81
2022/05/10 01:53:11;;;;;;;6.55;3.70;;;16.20;82.10;;;;;;4961685;28;20035;-81
2022/05/10 01:55:48;;;;;;;6.20;3.67;;;16.20;82.10;;;;;;4961821;28;20126;-81
2022/05/10 01:58:25;;;;;;;6.40;3.53;;;16.20;82.20;;;;;;4978496;28;20496;-81
2022/05/10 02:01:00;;;;;;;7.63;3.70;;;16.20;82.20;;;;;;4961303;28;20077;-81
2022/05/10 02:03:42;;;;;;;6.25;3.60;;;16.20;82.30;;;;;;4978469;28;20034;-81
2022/05/10 02:06:29;;;;;;;5.68;3.55;;;16.20;82.30;;;;;;4960404;28;20030;-82
2022/05/10 02:08:59;;;;;;;6.07;3.50;;;16.20;82.30;;;;;;4961056;28;20030;-82
2022/05/10 02:11:24;;;;;;;5.95;3.63;;;16.20;82.20;;;;;;4961115;28;20254;-82
2022/05/10 02:14:02;;;;;;;6.93;3.65;;;16.20;82.10;;;;;;4960960;28;20030;-81
2022/05/10 02:16:44;;;;;;;6.20;3.58;;;16.30;82.00;;;;;;4977562;28;20411;-81
2022/05/10 02:19:34;;;;;;;6.47;3.65;;;16.30;81.90;;;;;;4959750;28;20027;-81
2022/05/10 02:22:23;;;;;;;6.43;3.60;;;16.30;81.70;;;;;;4978319;28;20031;-81
2022/05/10 02:25:02;;;;;;;6.38;3.45;;;16.30;81.50;;;;;;4971107;28;20087;-81
2022/05/10 02:27:45;;;;;;;5.50;3.42;;;16.30;81.50;;;;;;4960164;28;20061;-81
2022/05/10 02:30:19;;;;;;;5.68;3.58;;;16.30;81.50;;;;;;4963626;28;20038;-82
2022/05/10 02:33:07;;;;;;;5.05;3.22;;;16.30;81.50;;;;;;4964185;28;20098;-82
2022/05/10 02:35:58;;;;;;;6.00;3.20;;;16.30;81.60;;;;;;4963165;28;20085;-82
2022/05/10 02:38:28;;;;;;;5.57;3.20;;;16.30;81.80;;;;;;4963235;28;20031;-81
2022/05/10 02:40:57;;;;;;;6.53;3.55;;;16.30;81.90;;;;;;4960652;28;20484;-82
2022/05/10 02:43:25;;;;;;;5.55;3.47;;;16.30;82.00;;;;;;4955914;28;20471;-81
2022/05/10 02:45:54;;;;;;;6.65;3.55;;;16.30;82.00;;;;;;4962587;28;20050;-81
2022/05/10 02:48:23;;;;;;;5.30;3.42;;;16.20;82.10;;;;;;4980026;28;20034;-81
2022/05/10 02:50:49;;;;;;;5.93;3.33;;;16.20;82.10;;;;;;4962627;28;20031;-81
2022/05/10 02:53:15;;;;;;;6.05;3.80;;;16.20;82.10;;;;;;4961531;28;20055;-81
2022/05/10 02:55:48;;;;;;;6.30;3.60;;;16.20;82.20;;;;;;4961781;28;20023;-81
2022/05/10 02:58:39;;;;;;;5.95;3.40;;;16.20;82.30;;;;;;4979065;28;20035;-81
2022/05/10 03:01:33;;;;;;;6.28;3.60;;;16.20;82.20;;;;;;4961862;28;20031;-81
2022/05/10 03:03:59;;;;;;;5.63;3.15;;;16.20;82.30;;;;;;4961070;28;20023;-81
2022/05/10 03:06:26;;;;;;;5.80;3.58;;;16.20;82.30;;;;;;4961461;28;20054;-81
2022/05/10 03:08:52;;;;;;;4.95;3.22;;;16.20;82.30;;;;;;4978473;28;20628;-81
2022/05/10 03:11:18;;;;;;;6.63;3.80;;;16.20;82.40;;;;;;4978487;28;20023;-81
2022/05/10 03:13:46;;;;;;;6.07;3.50;;;16.20;82.40;;;;;;4961300;28;20022;-81
2022/05/10 03:16:12;;;;;;;5.35;3.33;;;16.20;82.40;;;;;;4960298;28;20503;-81
2022/05/10 03:18:37;;;;;;;6.05;3.28;;;16.20;82.50;;;;;;4978228;28;20019;-81
2022/05/10 03:21:03;;;;;;;6.43;3.55;;;16.20;82.40;;;;;;4960269;28;20436;-81
2022/05/10 03:23:29;;;;;;;6.38;3.90;;;16.20;82.20;;;;;;4960057;28;20027;-81
2022/05/10 03:25:56;;;;;;;6.70;3.65;;;16.30;82.10;;;;;;4961069;28;20026;-81
2022/05/10 03:28:23;;;;;;;6.32;3.40;;;16.30;82.00;;;;;;4959631;28;20031;-81
2022/05/10 03:30:48;;;;;;;5.95;3.30;;;16.30;81.80;;;;;;4977745;28;20042;-81
2022/05/10 03:33:14;;;;;;;5.95;3.45;;;16.30;81.70;;;;;;4960055;28;20038;-82
2022/05/10 03:35:40;;;;;;;5.70;3.38;;;16.40;81.70;;;;;;4959630;28;20050;-81
2022/05/10 03:38:06;;;;;;;5.35;3.30;;;16.40;81.70;;;;;;4959868;28;20038;-81
2022/05/10 03:40:31;;;;;;;5.22;3.30;;;16.30;81.60;;;;;;4959529;28;20027;-81
2022/05/10 03:42:57;;;;;;;5.65;3.38;;;16.30;81.70;;;;;;4977077;28;20550;-81
2022/05/10 03:45:24;;;;;;;5.68;3.25;;;16.30;81.80;;;;;;4959048;28;20023;-81
2022/05/10 03:47:51;;;;;;;5.88;3.35;;;16.30;81.90;;;;;;4976863;28;20042;-81
2022/05/10 03:50:19;;;;;;;5.38;3.20;;;16.30;82.00;;;;;;4959149;28;20034;-81
2022/05/10 03:52:46;;;;;;;5.28;3.30;;;16.20;82.10;;;;;;4976364;28;20038;-81
2022/05/10 03:55:14;;;;;;;6.45;3.50;;;16.20;82.20;;;;;;4976366;28;20023;-81
2022/05/10 03:57:40;;;;;;;6.57;3.60;;;16.20;82.20;;;;;;4959220;28;20105;-80
2022/05/10 04:00:11;;;;;;;5.55;3.42;;;16.20;82.30;;;;;;4959067;28;20488;-81
2022/05/10 04:02:37;;;;;;;5.38;3.30;;;16.20;82.40;;;;;;4976233;28;20027;-81
2022/05/10 04:05:04;;;;;;;5.75;3.40;;;16.20;82.40;;;;;;4976182;28;20038;-80
2022/05/10 04:07:29;;;;;;;5.30;3.40;;;16.20;82.50;;;;;;4976735;28;20106;-81
2022/05/10 04:09:54;;;;;;;5.97;3.50;;;16.20;82.50;;;;;;4976329;28;20554;-81
2022/05/10 04:12:20;;;;;;;5.20;3.20;;;16.20;82.50;;;;;;4976540;28;20022;-81
2022/05/10 04:14:45;;;;;;;5.95;3.72;;;16.20;82.50;;;;;;4976495;28;20408;-81
2022/05/10 04:17:11;;;;;;;6.20;3.45;;;16.20;82.60;;;;;;4958714;28;20070;-81
2022/05/10 04:19:36;;;;;;;5.72;3.40;;;16.20;82.50;;;;;;4958313;28;20030;-81
2022/05/10 04:22:02;;;;;;;4.95;3.28;;;16.20;82.50;;;;;;4958470;28;20498;-81
2022/05/10 04:24:28;;;;;;;5.10;3.20;;;16.20;82.60;;;;;;4958558;28;20023;-81
2022/05/10 04:26:53;;;;;;;5.65;3.25;;;16.20;82.70;;;;;;4958369;28;20015;-81
2022/05/10 04:29:19;;;;;;;4.88;2.85;;;16.20;82.60;;;;;;4958129;28;20403;-81
2022/05/10 04:31:44;;;;;;;5.43;3.35;;;16.20;82.40;;;;;;4958860;28;20086;-82
2022/05/10 04:34:10;;;;;;;5.55;3.03;;;16.20;82.20;;;;;;4961845;28;20395;-80
2022/05/10 04:36:35;;;;;;;5.00;3.10;;;16.30;82.10;;;;;;4961962;28;20027;-82
2022/05/10 04:39:02;;;;;;;5.05;3.20;;;16.30;81.90;;;;;;4962355;28;20447;-82
2022/05/10 04:41:31;;;;;;;5.65;3.40;;;16.30;81.80;;;;;;4960450;28;20117;-82
2022/05/10 04:43:59;;;;;;;5.78;3.20;;;16.30;82.20;;;;;;4965455;28;20033;-81
2022/05/10 04:46:26;;;;;;;5.90;3.33;;;16.30;81.70;;;;;;4964404;28;20027;-81
2022/05/10 04:48:52;;;;;;;5.50;3.22;;;16.30;81.80;;;;;;4964682;28;20404;-81
2022/05/10 04:51:18;;;;;;;5.90;3.28;;;16.30;81.90;;;;;;4964134;28;20022;-81
2022/05/10 04:53:44;;;;;;;4.97;3.20;;;16.30;82.10;;;;;;4963924;28;20492;-80
2022/05/10 04:56:10;;;;;;;5.70;3.60;;;16.20;82.10;;;;;;4976097;28;20038;-82
2022/05/10 04:58:36;;;;;;;5.43;3.40;;;16.30;82.30;;;;;;4958691;28;20034;-81
2022/05/10 05:01:05;;;;;;;5.50;3.35;;;16.30;82.30;;;;;;4958888;28;20496;-82
2022/05/10 05:03:31;;;;;;;5.28;3.15;;;16.20;82.40;;;;;;4975764;28;20041;-83
2022/05/10 05:05:57;;;;;;;5.57;3.53;;;16.30;82.40;;;;;;4957580;28;20022;-84
2022/05/10 05:08:22;;;;;;;5.25;3.30;;;16.20;82.40;;;;;;4958996;28;20095;-82
2022/05/10 05:10:48;;;;;;;5.13;3.05;;;16.30;82.60;;;;;;4977597;28;20034;-84
2022/05/10 05:13:15;;;;;;;5.35;3.30;;;16.20;82.50;;;;;;4976356;28;20039;-82
2022/05/10 05:15:40;;;;;;;5.22;3.20;;;16.20;82.60;;;;;;4959515;28;20030;-82
2022/05/10 05:18:08;;;;;;;5.18;3.10;;;16.20;82.60;;;;;;4958916;28;20037;-82
2022/05/10 05:20:34;;;;;;;5.55;3.17;;;16.20;82.60;;;;;;4959573;28;20042;-83
2022/05/10 05:23:01;;;;;;;4.97;3.15;;;16.20;82.60;;;;;;4978554;28;20038;-82
2022/05/10 05:25:27;;;;;;;5.07;3.30;;;16.20;82.60;;;;;;4978944;28;20106;-82
2022/05/10 05:27:52;;;;;;;5.15;3.28;;;16.30;82.70;;;;;;4978063;28;20030;-82
2022/05/10 05:30:18;;;;;;;5.93;3.40;;;16.20;82.60;;;;;;4978068;28;20146;-82
2022/05/10 05:32:44;;;;;;;5.05;3.30;;;16.20;82.50;;;;;;4977929;28;20912;-82
2022/05/10 05:35:11;;;;;;;5.32;3.20;;;16.30;82.60;;;;;;4958813;28;20054;-83
2022/05/10 05:37:37;;;;;;;5.82;3.35;;;16.30;82.40;;;;;;4960270;28;20031;-83
2022/05/10 05:40:16;;;;;;;5.53;3.30;;;16.30;82.30;;;;;;4957819;28;20027;-85
2022/05/10 05:42:42;;;;;;;5.20;2.92;;;16.30;82.20;;;;;;4957563;28;20030;-83
2022/05/10 05:45:10;;;;;;;5.20;3.30;;;16.40;82.10;;;;;;4957363;28;20119;-82
2022/05/10 05:47:37;;;;;;;5.22;3.35;;;16.40;82.00;;;;;;4974445;28;20042;-83
2022/05/10 05:50:04;;;;;;;4.68;3.03;;;16.40;81.80;;;;;;4955879;28;20050;-82
2022/05/10 05:52:30;;;;;;;5.68;3.50;;;16.40;81.80;;;;;;4976177;28;20034;-82
2022/05/10 05:54:55;;;;;;;5.25;3.30;;;16.40;81.80;;;;;;4959177;28;20052;-82
2022/05/10 05:57:22;;;;;;;5.10;3.25;;;16.40;81.90;;;;;;4961099;28;20054;-81
2022/05/10 05:59:52;;;;;;;5.38;3.15;;;16.40;82.00;;;;;;4956039;29;20054;-82
2022/05/10 06:02:18;;;;;;;7.40;3.40;;;16.40;82.00;;;;;;4961604;28;20059;-81
2022/05/10 06:04:44;;;;;;;6.32;3.20;;;16.40;82.10;;;;;;4974568;28;20038;-80
2022/05/10 06:07:10;;;;;;;5.32;3.10;;;16.30;82.00;;;;;;4982359;28;20388;-81
2022/05/10 06:09:37;;;;;;;5.10;3.28;;;16.40;82.10;;;;;;4989712;28;20039;-81
2022/05/10 06:12:04;;;;;;;5.45;3.50;;;16.30;82.10;;;;;;4974102;28;20065;-79
2022/05/10 06:14:30;;;;;;;4.88;3.08;;;16.30;82.10;;;;;;4942942;28;20035;-79
2022/05/10 06:16:57;;;;;;;5.38;3.13;;;16.30;82.10;;;;;;4955896;28;20030;-80
2022/05/10 06:19:23;;;;;;;5.68;3.65;;;16.30;82.20;;;;;;4957950;28;20403;-81
2022/05/10 06:21:50;;;;;;;5.78;3.40;;;16.30;82.20;;;;;;4974616;28;20027;-81
2022/05/10 06:24:16;;;;;;;4.72;2.97;;;16.30;82.20;;;;;;4956786;28;20284;-79
2022/05/10 06:26:41;;;;;;;5.68;3.33;;;16.30;82.20;;;;;;4978833;28;20165;-78
2022/05/10 06:29:07;;;;;;;5.40;3.03;;;16.30;82.20;;;;;;4955642;28;20034;-78
2022/05/10 06:31:32;;;;;;;5.03;3.00;;;16.40;82.20;;;;;;4971886;28;20054;-81
2022/05/10 06:33:58;;;;;;;5.35;3.40;;;16.40;82.20;;;;;;4954987;28;20451;-79
2022/05/10 06:36:24;;;;;;;5.35;3.30;;;16.40;82.10;;;;;;4988353;28;20030;-80
2022/05/10 06:38:50;;;;;;;5.25;3.22;;;16.40;82.00;;;;;;4975106;28;20034;-78
2022/05/10 06:41:15;;;;;;;5.30;2.95;;;16.40;82.00;;;;;;4973852;28;20096;-78
2022/05/10 06:43:41;;;;;;;5.15;3.30;;;16.40;82.00;;;;;;4981193;28;20023;-79
2022/05/10 06:46:11;;;;;;;4.30;2.80;;;16.50;81.90;;;;;;4951659;28;20039;-78
2022/05/10 06:48:37;;;;;;;5.20;3.05;;;16.40;81.70;;;;;;4953244;29;20106;-79
2022/05/10 06:51:07;;;;;;;4.63;3.00;;;16.50;81.60;;;;;;4953125;29;20114;-80
2022/05/10 06:53:34;;;;;;;4.28;2.85;;;16.60;81.40;;;;;;4943851;28;20078;-80
2022/05/10 06:56:00;;;;;;;4.78;2.97;;;16.60;81.20;;;;;;4953896;28;20028;-78
2022/05/10 06:58:26;;;;;;;5.60;3.05;;;16.60;81.00;;;;;;4937146;29;20224;-78
2022/05/10 07:00:51;;;;;;;6.05;3.13;;;16.60;80.90;;;;;;4953950;29;20019;-78
2022/05/10 07:03:28;;;;;;;4.63;3.00;;;16.60;80.80;;;;;;4936035;29;20086;-80
2022/05/10 07:05:55;;;;;;;6.03;3.38;;;16.60;80.90;;;;;;4952980;28;20023;-79
2022/05/10 07:08:21;;;;;;;4.75;2.92;;;16.60;81.00;;;;;;4952944;29;20031;-79
2022/05/10 07:10:46;;;;;;;4.93;3.10;;;16.60;81.20;;;;;;4952287;29;20410;-78
2022/05/10 07:13:22;;;;;;;5.07;3.17;;;16.60;81.20;;;;;;4951967;29;20027;-77
2022/05/10 07:15:48;;;;;;;5.13;3.20;;;16.60;81.30;;;;;;4951432;28;20036;-79
2022/05/10 07:18:14;;;;;;;4.82;3.20;;;16.60;81.40;;;;;;4951084;29;20035;-78
2022/05/10 07:20:41;;;;;;;4.88;3.00;;;16.50;81.40;;;;;;4954203;29;20074;-81
2022/05/10 07:23:07;;;;;;;5.63;3.40;;;16.50;81.40;;;;;;4953952;29;20041;-80
2022/05/10 07:25:33;;;;;;;4.78;3.30;;;16.50;81.50;;;;;;4954330;28;20079;-82
2022/05/10 07:27:59;;;;;;;5.18;3.15;;;16.50;81.50;;;;;;4954635;29;20043;-80
2022/05/10 07:30:26;;;;;;;4.78;3.17;;;16.50;81.50;;;;;;4952623;29;20121;-80
2022/05/10 07:32:52;;;;;;;5.30;3.20;;;16.60;81.50;;;;;;4954316;29;20031;-81
2022/05/10 07:36:23;;;;;;;5.15;3.30;;;16.60;81.50;;;;;;4936558;29;20035;-79
2022/05/10 07:38:05;;;;;;;5.07;3.13;;;16.60;81.50;;;;;;4952813;29;20031;-80
2022/05/10 07:40:31;;;;;;;4.78;3.03;;;16.60;81.50;;;;;;4951755;29;20059;-80
2022/05/10 07:42:56;;;;;;;5.40;3.45;;;16.60;81.40;;;;;;4952983;29;20105;-80
2022/05/10 07:45:22;;;;;;;5.68;3.25;;;16.60;81.40;;;;;;4950048;28;20304;-82
2022/05/10 07:47:47;;;;;;;6.05;3.22;;;16.60;81.30;;;;;;4962578;28;20054;-80
2022/05/10 07:50:13;;;;;;;5.90;3.45;;;16.60;81.20;;;;;;4990405;28;20133;-81
2022/05/10 07:52:40;;;;;;;5.03;3.17;;;16.50;81.00;;;;;;4990908;28;20404;-80
2022/05/10 07:55:06;;;;;;;5.50;3.58;;;16.70;81.00;;;;;;4991955;28;20033;-83
2022/05/10 07:57:32;;;;;;;6.75;3.10;;;16.80;80.90;;;;;;4978069;28;20034;-82
2022/05/10 07:59:57;;;;;;;6.05;2.97;;;16.80;80.70;;;;;;4995626;28;20072;-82
2022/05/10 08:02:23;;;;;;;6.43;3.50;;;16.80;80.70;;;;;;4978263;28;20072;-81
2022/05/10 08:04:49;;;;;;;5.60;3.10;;;16.80;80.60;;;;;;4994558;28;20019;-82
2022/05/10 08:07:15;;;;;;;6.68;3.35;;;16.80;80.50;;;;;;4994621;28;20023;-80
2022/05/10 08:09:40;;;;;;;4.93;3.10;;;16.90;80.50;;;;;;4976962;28;20433;-81
2022/05/10 08:12:06;;;;;;;7.07;3.28;;;16.90;80.40;;;;;;4976790;28;20085;-81
2022/05/10 08:14:32;;;;;;;5.85;3.20;;;16.90;80.40;;;;;;4975884;28;20031;-82
2022/05/10 08:16:57;;;;;;;7.50;3.33;;;16.90;80.90;;;;;;4995543;28;20030;-80
2022/05/10 08:19:23;;;;;;;6.95;3.47;;;16.80;80.40;;;;;;4979554;28;20026;-80
2022/05/10 08:21:48;;;;;;;8.07;3.55;;;16.80;80.50;;;;;;4996852;28;20037;-80
2022/05/10 08:24:14;;;;;;;6.55;3.33;;;16.80;80.60;;;;;;4996874;28;20615;-80
2022/05/10 08:26:39;;;;;;;6.45;3.20;;;16.80;80.70;;;;;;4978830;28;20026;-82
2022/05/10 08:29:05;;;;;;;6.68;3.33;;;16.80;80.80;;;;;;4996683;28;20041;-80
2022/05/10 08:31:30;;;;;;;5.82;3.63;;;16.80;80.80;;;;;;4978590;28;20121;-81
2022/05/10 08:33:56;;;;;;;6.22;3.10;;;16.80;80.90;;;;;;4978563;28;20050;-80
2022/05/10 08:36:22;;;;;;;8.32;3.67;;;16.80;80.90;;;;;;4977968;28;20026;-82
2022/05/10 08:38:48;;;;;;;4.57;2.90;;;16.90;80.80;;;;;;4977839;28;20031;-81
2022/05/10 08:41:39;;;;;;;6.65;3.33;;;16.80;80.80;;;;;;4996018;28;20054;-80
2022/05/10 08:44:16;;;;;;;6.18;3.20;;;16.90;80.80;;;;;;4977648;28;20030;-79
2022/05/10 08:46:45;;;;;;;5.82;3.30;;;16.90;80.70;;;;;;4977867;28;20109;-80
2022/05/10 08:49:25;;;;;;;6.28;3.33;;;16.90;80.60;;;;;;4995476;28;20396;-81
2022/05/10 08:51:52;;;;;;;5.47;3.20;;;16.90;80.50;;;;;;4995072;28;20061;-80
2022/05/10 08:54:18;;;;;;;5.75;3.40;;;17.00;80.50;;;;;;4977335;28;20066;-81
2022/05/10 08:56:53;;;;;;;5.13;3.17;;;17.00;80.40;;;;;;4995099;28;20057;-80
2022/05/10 08:59:30;;;;;;;5.35;3.10;;;17.00;80.30;;;;;;4995214;28;20060;-81
2022/05/10 09:02:01;;;;;;;5.50;3.47;;;17.00;80.30;;;;;;4977493;28;20431;-81
2022/05/10 09:04:41;;;;;;;5.05;3.20;;;17.00;80.20;;;;;;4994186;28;20030;-79
2022/05/10 09:07:16;;;;;;;4.93;3.10;;;17.10;80.10;;;;;;4976932;28;20022;-80
2022/05/10 09:10:01;;;;;;;5.60;3.55;;;17.10;79.90;;;;;;4994018;28;20724;-80
2022/05/10 09:12:28;;;;;;;5.30;3.33;;;17.20;79.80;;;;;;4977017;28;20030;-81
2022/05/10 09:15:00;;;;;;;5.53;3.42;;;17.20;79.60;;;;;;4976473;28;20474;-80
2022/05/10 09:17:36;;;;;;;6.43;3.22;;;17.20;79.50;;;;;;4976639;28;20411;-80
2022/05/10 09:20:04;;;;;;;5.82;3.25;;;17.20;79.40;;;;;;4993978;28;20060;-81
2022/05/10 09:22:55;;;;;;;6.25;3.25;;;17.20;79.50;;;;;;4981089;28;20373;-81
2022/05/10 09:25:32;;;;;;;5.22;3.10;;;17.20;79.70;;;;;;4997525;28;20101;-81
2022/05/10 09:28:03;;;;;;;5.47;3.25;;;17.20;79.80;;;;;;4997614;28;20040;-80
2022/05/10 09:30:34;;;;;;;5.70;3.38;;;17.20;79.90;;;;;;4980072;28;20038;-81
2022/05/10 09:36:01;;;;;;;5.07;3.42;;;17.20;79.90;;;;;;4996618;28;20100;-81
2022/05/10 09:38:27;;;;;;;5.82;3.25;;;17.20;79.90;;;;;;4978516;28;20495;-81
2022/05/10 09:40:52;;;;;;;5.68;3.22;;;17.20;79.90;;;;;;4996451;28;20484;-80
2022/05/10 09:43:38;;;;;;;5.88;3.38;;;17.20;79.90;;;;;;4978527;28;20026;-81
2022/05/10 09:46:05;;;;;;;4.38;3.00;;;17.20;80.00;;;;;;4995210;28;20049;-80
2022/05/10 09:48:31;;;;;;;5.60;3.42;;;17.20;80.10;;;;;;4994985;28;20121;-81
2022/05/10 09:50:56;;;;;;;5.07;3.38;;;17.20;80.70;;;;;;4977643;28;20137;-81
2022/05/10 09:53:28;;;;;;;5.65;3.42;;;17.10;80.20;;;;;;4995539;28;20380;-80
2022/05/10 09:56:07;;;;;;;5.43;3.67;;;17.10;80.30;;;;;;4976806;28;20121;-80
2022/05/10 09:58:36;;;;;;;6.00;3.45;;;17.10;80.40;;;;;;4994665;28;20038;-80
2022/05/10 10:01:06;;;;;;;5.70;3.53;;;17.10;80.50;;;;;;4994316;28;20030;-82
2022/05/10 10:03:42;;;;;;;4.95;3.10;;;17.10;80.60;;;;;;4994754;28;20491;-81
2022/05/10 10:06:19;;;;;;;5.60;3.33;;;17.00;80.60;;;;;;4994087;28;20038;-81
2022/05/10 10:08:55;;;;;;;5.43;3.28;;;17.10;80.60;;;;;;4975951;28;20030;-80
2022/05/10 10:11:28;;;;;;;5.68;3.17;;;17.10;80.60;;;;;;4993956;28;20033;-80
2022/05/10 10:13:57;;;;;;;5.25;3.28;;;17.10;80.50;;;;;;4975932;28;20522;-80
2022/05/10 10:16:27;;;;;;;4.65;3.03;;;17.20;80.20;;;;;;4975646;28;20134;-80
2022/05/10 10:18:58;;;;;;;6.35;3.30;;;17.30;79.90;;;;;;4993651;28;20030;-80
2022/05/10 10:21:32;;;;;;;5.43;3.30;;;17.30;79.80;;;;;;4993260;28;20121;-82
2022/05/10 10:23:59;;;;;;;5.60;3.55;;;17.30;79.70;;;;;;4992898;28;20299;-80
2022/05/10 10:26:36;;;;;;;5.70;3.58;;;17.30;79.60;;;;;;4967715;28;20027;-80
2022/05/10 10:29:20;;;;;;;5.93;3.65;;;17.30;79.80;;;;;;4956037;28;20677;-80
2022/05/10 10:31:55;;;;;;;5.80;3.40;;;17.30;79.90;;;;;;4957321;28;20031;-80
2022/05/10 10:34:43;;;;;;;5.82;3.58;;;17.20;80.10;;;;;;4973255;28;20041;-80
2022/05/10 10:37:17;;;;;;;5.43;3.35;;;17.20;80.20;;;;;;4975892;28;20025;-81
2022/05/10 10:40:01;;;;;;;5.22;3.25;;;17.20;80.40;;;;;;4980153;28;20488;-80
2022/05/10 10:43:02;;;;;;;4.95;3.08;;;17.20;80.40;;;;;;4973472;28;20088;-79
2022/05/10 10:45:44;;;;;;;4.68;3.20;;;17.10;80.50;;;;;;4969746;28;20134;-78
2022/05/10 10:48:40;;;;;;;6.05;3.70;;;17.10;80.60;;;;;;4974226;28;20035;-81
2022/05/10 10:51:09;;;;;;;5.40;3.75;;;17.10;80.60;;;;;;4979345;28;20030;-81
2022/05/10 10:53:35;;;;;;;5.78;3.20;;;17.10;80.70;;;;;;4974506;28;20061;-80
2022/05/10 10:56:32;;;;;;;5.38;3.45;;;17.10;80.70;;;;;;4974818;28;20038;-80
2022/05/10 10:59:26;;;;;;;5.50;3.40;;;17.10;80.80;;;;;;4960528;28;20043;-79
2022/05/10 11:02:15;;;;;;;5.18;3.35;;;17.10;80.80;;;;;;4972179;28;20026;-79
2022/05/10 11:04:55;;;;;;;6.03;3.35;;;17.10;80.80;;;;;;4993013;28;20545;-80
2022/05/10 11:07:34;;;;;;;6.20;3.38;;;17.10;80.80;;;;;;4978767;28;20108;-81
2022/05/10 11:10:15;;;;;;;5.65;3.67;;;17.10;80.90;;;;;;4995922;28;20027;-80
2022/05/10 11:13:06;;;;;;;4.90;3.25;;;17.10;80.80;;;;;;4978715;28;20025;-83
2022/05/10 11:15:58;;;;;;;6.05;3.55;;;17.10;80.90;;;;;;4996476;28;20042;-80
2022/05/10 11:18:47;;;;;;;5.55;3.53;;;17.10;80.80;;;;;;4976103;28;20129;-80
2022/05/10 11:21:23;;;;;;;4.97;3.20;;;17.10;80.70;;;;;;4979788;28;20403;-82
2022/05/10 11:24:05;;;;;;;4.95;3.10;;;17.20;80.50;;;;;;4983993;28;20034;-82
2022/05/10 11:26:43;;;;;;;5.32;3.20;;;17.20;80.30;;;;;;4983029;28;20107;-81
2022/05/10 11:29:34;;;;;;;5.00;3.25;;;17.30;80.10;;;;;;4983309;28;20030;-81
2022/05/10 11:32:53;;;;;;;6.35;3.60;;;17.30;80.00;;;;;;4982826;28;20030;-81
2022/05/10 11:35:46;;;;;;;6.47;3.30;;;17.30;80.10;;;;;;4923506;29;20115;-81
2022/05/10 11:38:30;;;;;;;5.18;3.20;;;17.20;80.30;;;;;;4982526;28;20117;-81
2022/05/10 11:41:36;;;;;;;5.53;3.50;;;17.10;80.40;;;;;;4999674;28;20022;-81
2022/05/10 11:44:29;;;;;;;5.13;3.13;;;17.10;80.60;;;;;;4999919;28;20018;-80
2022/05/10 11:46:59;;;;;;;4.68;3.20;;;17.10;80.80;;;;;;4981728;28;20373;-81
2022/05/10 11:49:53;;;;;;;5.45;3.25;;;17.00;80.90;;;;;;4963227;28;20458;-81
2022/05/10 11:52:37;;;;;;;5.15;3.35;;;17.10;81.00;;;;;;4983195;28;20427;-83
2022/05/10 11:55:27;;;;;;;5.07;3.20;;;17.10;81.10;;;;;;4981330;28;20038;-81
2022/05/10 11:57:56;;;;;;;;;;;17.00;81.10;;;;;;4963493;29;20121;-80
2022/05/10 12:00:30;;;;;;;5.15;3.30;;;17.00;81.20;;;;;;4963774;29;19946;-80
2022/05/10 12:03:01;;;;;;;5.38;3.47;;;17.00;81.30;;;;;;4962595;29;20031;-80
2022/05/10 12:05:29;;;;;;;7.80;3.38;;;17.00;81.30;;;;;;4961714;28;20034;-81
2022/05/10 12:08:02;;;;;;;5.72;3.80;;;17.00;81.40;;;;;;4943800;29;20027;-80
2022/05/10 12:10:30;;;;;;;5.25;3.38;;;17.00;81.30;;;;;;4944555;29;20031;-82
2022/05/10 12:12:58;;;;;;;5.13;3.42;;;17.00;81.40;;;;;;4961563;29;20031;-81
2022/05/10 12:21:19;;;;;;;6.82;3.60;;;17.00;81.50;;;;;;4961887;29;20086;-81
2022/05/10 12:24:05;;;;;;;5.30;3.40;;;17.10;81.40;;;;;;4944421;29;20397;-81
2022/05/10 12:26:46;;;;;;;5.32;3.20;;;17.10;81.10;;;;;;4961305;28;20473;-81
2022/05/10 12:29:34;;;;;;;5.00;3.10;;;17.10;81.00;;;;;;4961345;29;20035;-80
2022/05/10 12:32:42;;;;;;;6.40;3.28;;;17.10;80.90;;;;;;4960936;29;20035;-81
2022/05/10 12:35:12;;;;;;;5.45;3.40;;;17.10;80.80;;;;;;4956708;28;20082;-80
2022/05/10 12:38:00;;;;;;;5.70;3.30;;;17.10;80.70;;;;;;4943062;29;20031;-81
2022/05/10 12:40:33;;;;;;;5.40;3.45;;;17.10;80.70;;;;;;4960062;29;20122;-80
2022/05/10 12:43:17;;;;;;;5.38;3.22;;;17.10;80.80;;;;;;4942845;29;20030;-80
2022/05/10 12:45:57;;;;;;;5.75;3.15;;;17.10;81.00;;;;;;4943095;29;20026;-81
2022/05/10 12:48:43;;;;;;;5.10;3.35;;;17.10;81.00;;;;;;4946508;29;20027;-82
2022/05/10 12:51:38;;;;;;;6.13;3.30;;;17.10;81.10;;;;;;4946635;29;20034;-82
2022/05/10 12:54:07;;;;;;;5.97;3.47;;;17.00;81.10;;;;;;4946520;29;20034;-82
2022/05/10 12:56:41;;;;;;;5.63;3.47;;;17.00;81.10;;;;;;4945471;29;20047;-81
2022/05/10 12:59:17;;;;;;;5.25;3.20;;;17.10;81.20;;;;;;4946029;29;20102;-81
2022/05/10 13:01:43;;;;;;;5.68;3.80;;;17.10;81.20;;;;;;4945399;28;20078;-81
2022/05/10 13:04:20;;;;;;;5.03;3.10;;;17.10;81.30;;;;;;4944784;29;20046;-81
2022/05/10 13:07:20;;;;;;;5.43;3.50;;;17.10;81.30;;;;;;4945071;29;20027;-81
2022/05/10 13:09:53;;;;;;;5.43;3.60;;;17.10;81.30;;;;;;4962737;29;20032;-81
2022/05/10 13:12:43;;;;;;;4.55;3.00;;;17.10;81.30;;;;;;4962056;29;20032;-81
2022/05/10 13:15:14;;;;;;;;;;;17.10;81.30;;;;;;4944737;29;20035;-81
2022/05/10 13:17:44;;;;;;;4.78;3.08;;;17.10;81.30;;;;;;4944405;29;20378;-80
2022/05/10 13:20:12;;;;;;;5.67;3.10;;;17.10;81.20;;;;;;4944214;29;20511;-81
2022/05/10 13:22:56;;;;;;;5.70;3.35;;;17.10;81.30;;;;;;4961358;29;20075;-81
2022/05/10 13:25:29;;;;;;;5.40;3.35;;;17.10;81.30;;;;;;4943798;29;20019;-81